createdAt,value
2016-12-15T00:00:57.305Z,0
2016-12-15T00:02:00.760Z,0
2016-12-15T00:03:04.222Z,0
2016-12-15T00:04:07.663Z,0
2016-12-15T00:05:11.122Z,0
2016-12-15T00:06:14.580Z,0
2016-12-15T00:07:18.026Z,0
2016-12-15T00:08:21.483Z,0
2016-12-15T00:09:24.942Z,0
2016-12-15T00:10:28.391Z,0
2016-12-15T00:11:31.846Z,0
2016-12-15T00:12:35.304Z,0
2016-12-15T00:13:38.760Z,0
2016-12-15T00:14:42.207Z,0
2016-12-15T00:15:45.666Z,0
2016-12-15T00:16:49.122Z,0
2016-12-15T00:17:52.567Z,0
2016-12-15T00:18:56.028Z,0
2016-12-15T00:19:59.483Z,0
2016-12-15T00:21:02.931Z,0
2016-12-15T00:22:06.389Z,0
2016-12-15T00:23:09.836Z,0
2016-12-15T00:24:13.294Z,0
2016-12-15T00:25:16.751Z,0
2016-12-15T00:26:20.198Z,0
2016-12-15T00:27:23.654Z,0
2016-12-15T00:28:27.113Z,0
2016-12-15T00:29:30.559Z,0
2016-12-15T00:30:34.016Z,0
2016-12-15T00:31:37.475Z,0
2016-12-15T00:32:40.921Z,0
2016-12-15T00:33:44.378Z,0
2016-12-15T00:34:47.837Z,0
2016-12-15T00:35:51.292Z,0
2016-12-15T00:36:54.739Z,0
2016-12-15T00:37:58.199Z,0
2016-12-15T00:39:01.655Z,0
2016-12-15T00:40:05.102Z,0
2016-12-15T00:41:08.561Z,0
2016-12-15T00:42:12.007Z,0
2016-12-15T00:43:15.463Z,0
2016-12-15T00:44:18.922Z,0
2016-12-15T00:45:22.368Z,0
2016-12-15T00:46:25.825Z,0
2016-12-15T00:47:29.284Z,0
2016-12-15T00:48:32.741Z,0
2016-12-15T00:49:36.193Z,0
2016-12-15T00:50:39.652Z,0
2016-12-15T00:51:43.101Z,0
2016-12-15T00:52:46.549Z,0
2016-12-15T00:53:50.007Z,0
2016-12-15T00:54:53.463Z,0
2016-12-15T00:55:56.909Z,0
2016-12-15T00:57:00.373Z,0
2016-12-15T00:58:03.825Z,0
2016-12-15T00:59:07.272Z,0
2016-12-15T01:00:10.728Z,0
2016-12-15T01:01:14.176Z,0
2016-12-15T01:02:17.634Z,0
2016-12-15T01:03:21.092Z,0
2016-12-15T01:04:24.539Z,0
2016-12-15T01:05:27.996Z,0
2016-12-15T01:06:31.454Z,0
2016-12-15T01:07:34.902Z,0
2016-12-15T01:08:38.357Z,0
2016-12-15T01:09:41.813Z,0
2016-12-15T01:10:45.262Z,0
2016-12-15T01:11:48.719Z,0
2016-12-15T01:12:52.178Z,0
2016-12-15T01:13:55.634Z,0
2016-12-15T01:14:59.081Z,0
2016-12-15T01:16:02.540Z,0
2016-12-15T01:17:05.987Z,0
2016-12-15T01:18:09.443Z,0
2016-12-15T01:19:12.898Z,0
2016-12-15T01:20:16.348Z,0
2016-12-15T01:21:19.805Z,0
2016-12-15T01:22:23.261Z,0
2016-12-15T01:23:26.719Z,0
2016-12-15T01:24:30.166Z,0
2016-12-15T01:25:33.625Z,0
2016-12-15T01:26:37.081Z,0
2016-12-15T01:27:40.528Z,0
2016-12-15T01:28:43.987Z,0
2016-12-15T01:29:47.435Z,0
2016-12-15T01:30:50.890Z,0
2016-12-15T01:31:54.348Z,0
2016-12-15T01:32:57.795Z,0
2016-12-15T01:34:01.252Z,0
2016-12-15T01:35:04.707Z,0
2016-12-15T01:36:08.156Z,0
2016-12-15T01:37:11.613Z,0
2016-12-15T01:38:15.073Z,0
2016-12-15T01:39:18.520Z,0
2016-12-15T01:40:21.975Z,0
2016-12-15T01:41:25.434Z,0
2016-12-15T01:42:28.882Z,0
2016-12-15T01:43:32.337Z,0
2016-12-15T01:44:35.797Z,0
2016-12-15T01:45:39.244Z,0
2016-12-15T01:46:42.699Z,0
2016-12-15T01:47:46.157Z,0
2016-12-15T01:48:49.613Z,0
2016-12-15T01:49:53.060Z,0
2016-12-15T01:50:56.519Z,0
2016-12-15T01:51:59.967Z,0
2016-12-15T01:53:03.422Z,0
2016-12-15T01:54:06.881Z,0
2016-12-15T01:55:10.336Z,0
2016-12-15T01:56:13.783Z,0
2016-12-15T01:57:17.242Z,0
2016-12-15T01:58:20.689Z,0
2016-12-15T01:59:24.146Z,0
2016-12-15T02:00:27.603Z,0
2016-12-15T02:01:31.051Z,0
2016-12-15T02:02:34.507Z,0
2016-12-15T02:03:37.965Z,0
2016-12-15T02:04:41.413Z,0
2016-12-15T02:05:44.869Z,0
2016-12-15T02:06:48.328Z,0
2016-12-15T02:07:51.775Z,0
2016-12-15T02:08:55.230Z,0
2016-12-15T02:09:58.689Z,0
2016-12-15T02:11:02.145Z,0
2016-12-15T02:12:05.593Z,0
2016-12-15T02:13:09.052Z,0
2016-12-15T02:14:12.499Z,0
2016-12-15T02:15:15.955Z,0
2016-12-15T02:16:19.423Z,0
2016-12-15T02:17:22.870Z,0
2016-12-15T02:18:26.322Z,0
2016-12-15T02:19:29.780Z,0
2016-12-15T02:20:33.231Z,0
2016-12-15T02:21:36.677Z,0
2016-12-15T02:22:40.136Z,0
2016-12-15T02:23:43.584Z,0
2016-12-15T02:24:47.040Z,0
2016-12-15T02:25:50.498Z,0
2016-12-15T02:26:53.944Z,0
2016-12-15T02:27:57.401Z,0
2016-12-15T02:29:00.859Z,0
2016-12-15T02:30:04.316Z,0
2016-12-15T02:31:07.764Z,0
2016-12-15T02:32:11.220Z,0
2016-12-15T02:33:14.669Z,0
2016-12-15T02:34:18.133Z,0
2016-12-15T02:35:21.590Z,0
2016-12-15T02:36:25.040Z,0
2016-12-15T02:37:28.493Z,0
2016-12-15T02:38:31.951Z,0
2016-12-15T02:39:35.402Z,0
2016-12-15T02:40:38.854Z,0
2016-12-15T02:41:42.314Z,0
2016-12-15T02:42:45.765Z,0
2016-12-15T02:43:49.216Z,0
2016-12-15T02:44:52.672Z,0
2016-12-15T02:45:56.125Z,0
2016-12-15T02:46:59.572Z,0
2016-12-15T02:48:03.032Z,0
2016-12-15T02:49:06.477Z,0
2016-12-15T02:50:09.933Z,0
2016-12-15T02:51:13.392Z,0
2016-12-15T02:52:16.838Z,0
2016-12-15T02:53:20.295Z,0
2016-12-15T02:54:23.751Z,0
2016-12-15T02:55:27.202Z,0
2016-12-15T02:56:30.656Z,0
2016-12-15T02:57:34.115Z,0
2016-12-15T02:58:37.561Z,0
2016-12-15T02:59:41.018Z,0
2016-12-15T03:00:44.477Z,0
2016-12-15T03:01:47.925Z,0
2016-12-15T03:02:51.369Z,0
2016-12-15T03:03:54.825Z,0
2016-12-15T03:04:58.267Z,0
2016-12-15T03:06:01.723Z,0
2016-12-15T03:07:05.169Z,0
2016-12-15T03:08:08.621Z,0
2016-12-15T03:09:12.080Z,0
2016-12-15T03:10:15.530Z,0
2016-12-15T03:11:18.976Z,0
2016-12-15T03:12:23.152Z,0
2016-12-15T03:13:26.601Z,0
2016-12-15T03:14:30.055Z,0
2016-12-15T03:15:33.512Z,0
2016-12-15T03:16:36.958Z,0
2016-12-15T03:17:40.417Z,0
2016-12-15T03:18:43.876Z,0
2016-12-15T03:19:47.322Z,0
2016-12-15T03:20:50.779Z,0
2016-12-15T03:21:54.237Z,0
2016-12-15T03:22:57.683Z,0
2016-12-15T03:24:01.140Z,0
2016-12-15T03:25:04.601Z,0
2016-12-15T03:26:08.047Z,0
2016-12-15T03:27:11.502Z,0
2016-12-15T03:28:14.961Z,0
2016-12-15T03:29:18.408Z,0
2016-12-15T03:30:21.864Z,0
2016-12-15T03:31:25.324Z,0
2016-12-15T03:32:28.778Z,0
2016-12-15T03:33:32.226Z,0
2016-12-15T03:34:35.684Z,0
2016-12-15T03:35:39.132Z,0
2016-12-15T03:36:42.588Z,0
2016-12-15T03:37:46.046Z,0
2016-12-15T03:38:49.494Z,0
2016-12-15T03:39:52.949Z,0
2016-12-15T03:40:56.408Z,0
2016-12-15T03:41:59.855Z,0
2016-12-15T03:43:03.311Z,0
2016-12-15T03:44:06.770Z,0
2016-12-15T03:45:10.226Z,0
2016-12-15T03:46:13.672Z,0
2016-12-15T03:47:17.132Z,0
2016-12-15T03:48:20.579Z,0
2016-12-15T03:49:24.034Z,0
2016-12-15T03:50:27.493Z,0
2016-12-15T03:51:30.941Z,0
2016-12-15T03:52:34.396Z,0
2016-12-15T03:53:37.855Z,0
2016-12-15T03:54:41.302Z,0
2016-12-15T03:55:44.757Z,0
2016-12-15T03:56:48.217Z,0
2016-12-15T03:57:51.672Z,0
2016-12-15T03:58:55.119Z,0
2016-12-15T03:59:58.578Z,0
2016-12-15T04:01:02.026Z,0
2016-12-15T04:02:05.481Z,0
2016-12-15T04:03:08.940Z,0
2016-12-15T04:04:12.386Z,0
2016-12-15T04:05:15.843Z,0
2016-12-15T04:06:19.300Z,0
2016-12-15T04:08:51.175Z,0
2016-12-15T04:09:54.636Z,0
2016-12-15T04:10:58.075Z,0
2016-12-15T04:12:01.528Z,0
2016-12-15T04:13:04.980Z,0
2016-12-15T04:14:08.425Z,0
2016-12-15T04:15:11.883Z,0
2016-12-15T04:16:15.329Z,0
2016-12-15T04:17:18.786Z,0
2016-12-15T04:18:22.245Z,0
2016-12-15T04:19:25.701Z,0
2016-12-15T04:20:29.149Z,0
2016-12-15T04:21:32.607Z,0
2016-12-15T04:22:36.054Z,0
2016-12-15T04:23:39.510Z,0
2016-12-15T04:24:42.969Z,0
2016-12-15T04:25:46.417Z,0
2016-12-15T04:26:49.872Z,0
2016-12-15T04:27:53.331Z,0
2016-12-15T04:28:56.777Z,0
2016-12-15T04:30:00.233Z,0
2016-12-15T04:31:03.681Z,0
2016-12-15T04:32:07.119Z,0
2016-12-15T04:33:10.577Z,0
2016-12-15T04:34:14.023Z,0
2016-12-15T04:35:17.475Z,0
2016-12-15T04:36:20.933Z,0
2016-12-15T04:37:24.383Z,0
2016-12-15T04:38:27.829Z,0
2016-12-15T04:39:31.288Z,0
2016-12-15T04:40:34.735Z,0
2016-12-15T04:41:38.193Z,0
2016-12-15T04:42:41.650Z,0
2016-12-15T04:43:45.097Z,0
2016-12-15T04:44:48.554Z,0
2016-12-15T04:45:52.013Z,0
2016-12-15T04:46:55.459Z,0
2016-12-15T04:47:58.916Z,0
2016-12-15T04:49:02.374Z,0
2016-12-15T04:50:05.820Z,0
2016-12-15T04:51:09.277Z,0
2016-12-15T04:52:12.736Z,4
2016-12-15T04:53:16.182Z,4
2016-12-15T04:54:19.638Z,0
2016-12-15T04:55:23.097Z,4
2016-12-15T04:56:26.544Z,4
2016-12-15T04:57:30.001Z,4
2016-12-15T04:58:33.490Z,0
2016-12-15T04:59:36.975Z,0
2016-12-15T05:00:40.437Z,0
2016-12-15T05:01:43.886Z,0
2016-12-15T05:02:47.328Z,0
2016-12-15T05:03:50.804Z,0
2016-12-15T05:04:54.253Z,0
2016-12-15T05:05:57.715Z,0
2016-12-15T05:07:01.166Z,0
2016-12-15T05:08:04.615Z,4
2016-12-15T05:09:08.060Z,4
2016-12-15T05:10:11.515Z,0
2016-12-15T05:11:14.965Z,4
2016-12-15T05:12:18.424Z,4
2016-12-15T05:13:21.881Z,4
2016-12-15T05:14:25.327Z,0
2016-12-15T05:15:28.784Z,0
2016-12-15T05:16:32.244Z,0
2016-12-15T05:17:35.690Z,4
2016-12-15T05:18:39.134Z,4
2016-12-15T05:19:42.606Z,0
2016-12-15T05:20:46.049Z,388
2016-12-15T05:21:49.510Z,384
2016-12-15T05:22:52.968Z,380
2016-12-15T05:23:56.413Z,332
2016-12-15T05:24:59.870Z,360
2016-12-15T05:26:03.328Z,352
2016-12-15T05:27:06.774Z,356
2016-12-15T05:28:10.229Z,376
2016-12-15T05:29:13.679Z,376
2016-12-15T05:30:17.123Z,372
2016-12-15T05:31:20.579Z,372
2016-12-15T05:32:24.011Z,372
2016-12-15T05:33:27.466Z,372
2016-12-15T05:34:30.934Z,372
2016-12-15T05:35:34.374Z,372
2016-12-15T05:36:37.827Z,372
2016-12-15T05:37:41.272Z,368
2016-12-15T05:38:44.712Z,368
2016-12-15T05:39:48.167Z,372
2016-12-15T05:40:51.618Z,372
2016-12-15T05:41:55.070Z,368
2016-12-15T05:42:58.528Z,372
2016-12-15T05:44:01.978Z,372
2016-12-15T05:45:05.425Z,372
2016-12-15T05:46:08.886Z,368
2016-12-15T05:47:12.338Z,368
2016-12-15T05:48:15.780Z,368
2016-12-15T05:49:19.245Z,364
2016-12-15T05:50:22.684Z,368
2016-12-15T05:51:26.133Z,368
2016-12-15T05:52:29.592Z,368
2016-12-15T05:53:33.033Z,368
2016-12-15T05:54:36.492Z,368
2016-12-15T05:55:39.953Z,364
2016-12-15T05:56:43.391Z,368
2016-12-15T05:57:46.849Z,368
2016-12-15T05:58:50.299Z,368
2016-12-15T05:59:53.746Z,364
2016-12-15T06:00:57.204Z,368
2016-12-15T06:02:00.660Z,368
2016-12-15T06:03:04.110Z,368
2016-12-15T06:04:07.565Z,368
2016-12-15T06:05:11.011Z,368
2016-12-15T06:06:14.469Z,368
2016-12-15T06:07:17.928Z,368
2016-12-15T06:08:21.375Z,368
2016-12-15T06:09:24.830Z,368
2016-12-15T06:10:28.296Z,368
2016-12-15T06:11:31.745Z,372
2016-12-15T06:12:35.201Z,368
2016-12-15T06:13:38.661Z,368
2016-12-15T06:16:12.665Z,368
2016-12-15T06:17:16.124Z,372
2016-12-15T06:18:19.563Z,368
2016-12-15T06:19:23.029Z,364
2016-12-15T06:20:26.480Z,368
2016-12-15T06:21:29.925Z,316
2016-12-15T06:22:33.377Z,320
2016-12-15T06:23:36.828Z,320
2016-12-15T06:24:40.274Z,320
2016-12-15T06:25:43.737Z,316
2016-12-15T06:26:47.188Z,316
2016-12-15T06:27:50.648Z,316
2016-12-15T06:28:54.094Z,316
2016-12-15T06:29:57.533Z,320
2016-12-15T06:31:00.987Z,320
2016-12-15T06:32:04.455Z,320
2016-12-15T06:33:07.909Z,320
2016-12-15T06:34:11.370Z,316
2016-12-15T06:35:14.838Z,316
2016-12-15T06:36:18.287Z,320
2016-12-15T06:37:21.738Z,316
2016-12-15T06:38:25.203Z,320
2016-12-15T06:39:28.656Z,316
2016-12-15T06:40:32.116Z,320
2016-12-15T06:41:35.567Z,316
2016-12-15T06:42:39.013Z,316
2016-12-15T06:43:42.466Z,316
2016-12-15T06:44:45.915Z,316
2016-12-15T06:45:49.372Z,316
2016-12-15T06:46:52.827Z,316
2016-12-15T06:47:56.284Z,316
2016-12-15T06:48:59.732Z,316
2016-12-15T06:50:03.179Z,316
2016-12-15T06:51:06.626Z,316
2016-12-15T06:52:10.079Z,316
2016-12-15T06:53:13.543Z,316
2016-12-15T06:54:16.994Z,316
2016-12-15T06:55:20.455Z,316
2016-12-15T06:56:23.910Z,316
2016-12-15T06:57:27.371Z,316
2016-12-15T06:58:30.825Z,344
2016-12-15T06:59:34.276Z,352
2016-12-15T07:00:37.742Z,368
2016-12-15T07:01:41.189Z,368
2016-12-15T07:02:44.646Z,368
2016-12-15T07:03:48.103Z,368
2016-12-15T07:04:51.557Z,368
2016-12-15T07:05:55.017Z,368
2016-12-15T07:06:58.494Z,368
2016-12-15T07:08:01.960Z,368
2016-12-15T07:09:05.408Z,368
2016-12-15T07:10:08.851Z,368
2016-12-15T07:11:12.306Z,368
2016-12-15T07:12:15.749Z,368
2016-12-15T07:13:19.203Z,368
2016-12-15T07:14:22.666Z,372
2016-12-15T07:15:26.112Z,364
2016-12-15T07:16:29.558Z,368
2016-12-15T07:19:03.609Z,368
2016-12-15T07:20:07.046Z,368
2016-12-15T07:21:10.515Z,372
2016-12-15T07:22:13.961Z,348
2016-12-15T07:23:17.416Z,368
2016-12-15T07:24:20.874Z,372
2016-12-15T07:25:24.306Z,368
2016-12-15T07:26:27.767Z,372
2016-12-15T07:27:31.225Z,368
2016-12-15T07:28:34.672Z,368
2016-12-15T07:29:38.124Z,368
2016-12-15T07:30:41.578Z,372
2016-12-15T07:31:45.029Z,372
2016-12-15T07:32:48.483Z,372
2016-12-15T07:33:51.934Z,372
2016-12-15T07:34:55.371Z,368
2016-12-15T07:35:58.833Z,368
2016-12-15T07:37:02.291Z,368
2016-12-15T07:38:05.726Z,368
2016-12-15T07:39:09.197Z,368
2016-12-15T07:40:12.653Z,368
2016-12-15T07:41:16.106Z,368
2016-12-15T07:42:19.566Z,368
2016-12-15T07:44:53.537Z,372
2016-12-15T07:45:56.984Z,372
2016-12-15T07:47:00.441Z,372
2016-12-15T07:48:03.897Z,372
2016-12-15T07:49:07.351Z,372
2016-12-15T07:50:10.834Z,372
2016-12-15T07:51:14.295Z,372
2016-12-15T07:52:17.749Z,364
2016-12-15T07:53:21.195Z,368
2016-12-15T07:54:24.661Z,368
2016-12-15T07:55:28.110Z,368
2016-12-15T07:56:31.556Z,372
2016-12-15T07:57:35.003Z,368
2016-12-15T07:58:38.471Z,372
2016-12-15T07:59:41.924Z,368
2016-12-15T08:00:45.377Z,368
2016-12-15T08:01:48.834Z,372
2016-12-15T08:02:52.289Z,372
2016-12-15T08:03:55.738Z,372
2016-12-15T08:04:59.195Z,372
2016-12-15T08:06:02.634Z,372
2016-12-15T08:07:06.117Z,372
2016-12-15T08:08:09.567Z,372
2016-12-15T08:09:13.012Z,372
2016-12-15T08:10:16.471Z,372
2016-12-15T08:12:48.176Z,376
2016-12-15T08:13:51.617Z,376
2016-12-15T08:14:55.067Z,376
2016-12-15T08:15:58.511Z,376
2016-12-15T08:17:01.973Z,376
2016-12-15T08:18:05.424Z,372
2016-12-15T08:19:08.876Z,372
2016-12-15T08:20:13.134Z,376
2016-12-15T08:21:42.866Z,376
2016-12-15T08:22:46.317Z,376
2016-12-15T08:23:49.764Z,376
2016-12-15T08:24:53.219Z,376
2016-12-15T08:27:24.691Z,376
2016-12-15T08:28:28.157Z,376
2016-12-15T08:29:31.608Z,376
2016-12-15T08:30:35.060Z,376
2016-12-15T08:31:38.531Z,376
2016-12-15T08:32:41.956Z,376
2016-12-15T08:33:45.404Z,376
2016-12-15T08:34:48.861Z,380
2016-12-15T08:35:52.301Z,376
2016-12-15T08:36:55.764Z,380
2016-12-15T08:37:59.224Z,380
2016-12-15T08:39:02.670Z,376
2016-12-15T08:40:06.122Z,380
2016-12-15T08:42:37.613Z,380
2016-12-15T08:43:42.631Z,380
2016-12-15T08:44:46.085Z,376
2016-12-15T08:47:19.040Z,372
2016-12-15T08:48:22.477Z,380
2016-12-15T08:49:25.954Z,384
2016-12-15T08:50:29.404Z,376
2016-12-15T08:51:32.848Z,380
2016-12-15T08:52:36.984Z,380
2016-12-15T08:53:40.429Z,380
2016-12-15T08:56:14.816Z,380
2016-12-15T08:57:44.758Z,380
2016-12-15T08:58:48.217Z,380
2016-12-15T09:01:21.625Z,384
2016-12-15T09:02:25.083Z,384
2016-12-15T09:03:28.522Z,380
2016-12-15T09:04:31.985Z,384
2016-12-15T09:05:35.447Z,380
2016-12-15T09:06:38.910Z,380
2016-12-15T09:08:52.826Z,376
2016-12-15T09:09:56.302Z,380
2016-12-15T09:10:59.757Z,380
2016-12-15T09:12:03.202Z,380
2016-12-15T09:13:06.636Z,384
2016-12-15T09:14:10.105Z,384
2016-12-15T09:15:13.552Z,384
2016-12-15T09:16:17.013Z,384
2016-12-15T09:17:20.468Z,368
2016-12-15T09:19:54.221Z,380
2016-12-15T09:20:57.679Z,384
2016-12-15T09:22:01.140Z,380
2016-12-15T09:23:04.595Z,384
2016-12-15T09:24:08.740Z,380
2016-12-15T09:26:40.813Z,384
2016-12-15T09:27:44.260Z,384
2016-12-15T09:28:47.722Z,384
2016-12-15T09:29:51.190Z,380
2016-12-15T09:30:54.641Z,384
2016-12-15T09:31:58.129Z,384
2016-12-15T09:33:01.586Z,384
2016-12-15T09:34:05.070Z,384
2016-12-15T09:35:08.534Z,388
2016-12-15T09:40:21.465Z,384
2016-12-15T09:42:54.274Z,388
2016-12-15T09:43:58.609Z,392
2016-12-15T09:45:02.057Z,388
2016-12-15T09:46:05.520Z,388
2016-12-15T09:47:08.994Z,388
2016-12-15T09:48:12.423Z,388
2016-12-15T09:50:43.887Z,388
2016-12-15T09:51:47.356Z,388
2016-12-15T09:52:50.815Z,348
2016-12-15T09:53:54.270Z,348
2016-12-15T09:54:57.724Z,344
2016-12-15T09:56:01.192Z,348
2016-12-15T09:57:04.654Z,348
2016-12-15T09:58:08.108Z,388
2016-12-15T09:59:11.576Z,392
2016-12-15T10:00:15.032Z,392
2016-12-15T10:01:18.486Z,388
2016-12-15T10:02:21.949Z,392
2016-12-15T10:03:25.390Z,388
2016-12-15T10:04:28.845Z,388
2016-12-15T10:05:32.293Z,388
2016-12-15T10:06:35.753Z,392
2016-12-15T10:07:39.193Z,392
2016-12-15T10:08:42.658Z,392
2016-12-15T10:09:46.128Z,392
2016-12-15T10:10:49.568Z,392
2016-12-15T10:11:53.014Z,392
2016-12-15T10:12:56.480Z,388
2016-12-15T10:13:59.918Z,388
2016-12-15T10:15:03.390Z,388
2016-12-15T10:16:06.839Z,388
2016-12-15T10:18:40.238Z,392
2016-12-15T10:19:43.661Z,392
2016-12-15T10:22:16.876Z,392
2016-12-15T10:23:20.312Z,388
2016-12-15T10:24:23.781Z,392
2016-12-15T10:25:27.238Z,392
2016-12-15T10:26:30.692Z,392
2016-12-15T10:29:02.370Z,392
2016-12-15T10:30:05.813Z,392
2016-12-15T10:32:39.579Z,392
2016-12-15T10:35:10.674Z,392
2016-12-15T10:36:14.143Z,392
2016-12-15T10:37:17.605Z,388
2016-12-15T10:38:21.048Z,388
2016-12-15T10:39:24.504Z,392
2016-12-15T10:40:27.956Z,396
2016-12-15T10:41:32.215Z,392
2016-12-15T10:42:35.673Z,392
2016-12-15T10:45:07.357Z,392
2016-12-15T10:46:10.835Z,388
2016-12-15T10:48:46.081Z,392
2016-12-15T10:49:49.544Z,396
2016-12-15T10:50:52.977Z,396
2016-12-15T10:51:56.430Z,392
2016-12-15T10:52:59.883Z,392
2016-12-15T10:54:03.334Z,392
2016-12-15T10:55:06.788Z,392
2016-12-15T10:57:41.155Z,396
2016-12-15T10:58:44.613Z,396
2016-12-15T10:59:48.080Z,396
2016-12-15T11:00:51.538Z,396
2016-12-15T11:01:55.003Z,396
2016-12-15T11:02:58.452Z,396
2016-12-15T11:04:01.921Z,400
2016-12-15T11:05:05.378Z,396
2016-12-15T11:06:08.839Z,396
2016-12-15T11:07:12.292Z,396
2016-12-15T11:08:15.776Z,396
2016-12-15T11:09:19.244Z,396
2016-12-15T11:10:22.677Z,396
2016-12-15T11:12:54.370Z,396
2016-12-15T11:13:57.806Z,396
2016-12-15T11:15:01.318Z,392
2016-12-15T11:16:04.833Z,396
2016-12-15T11:17:08.288Z,392
2016-12-15T11:18:11.751Z,396
2016-12-15T11:19:15.210Z,396
2016-12-15T11:20:18.665Z,396
2016-12-15T11:21:22.131Z,396
2016-12-15T11:22:25.595Z,400
2016-12-15T11:23:29.063Z,400
2016-12-15T11:24:32.506Z,400
2016-12-15T11:25:35.957Z,404
2016-12-15T11:26:39.413Z,400
2016-12-15T11:27:42.861Z,392
2016-12-15T11:28:46.317Z,360
2016-12-15T11:29:49.768Z,400
2016-12-15T11:30:53.219Z,404
2016-12-15T11:31:56.680Z,404
2016-12-15T11:33:00.129Z,408
2016-12-15T11:34:03.576Z,408
2016-12-15T11:35:07.053Z,408
2016-12-15T11:36:10.498Z,408
2016-12-15T11:37:13.963Z,408
2016-12-15T11:38:17.428Z,408
2016-12-15T11:39:20.894Z,404
2016-12-15T11:40:24.348Z,408
2016-12-15T11:41:27.794Z,408
2016-12-15T11:42:31.253Z,408
2016-12-15T11:43:34.711Z,408
2016-12-15T11:44:38.161Z,408
2016-12-15T11:45:41.627Z,408
2016-12-15T11:46:45.103Z,412
2016-12-15T11:47:48.554Z,408
2016-12-15T11:48:52.012Z,412
2016-12-15T11:49:55.471Z,412
2016-12-15T11:50:58.923Z,412
2016-12-15T11:52:02.368Z,416
2016-12-15T11:53:05.846Z,416
2016-12-15T11:54:09.299Z,408
2016-12-15T11:55:12.742Z,384
2016-12-15T11:56:16.195Z,396
2016-12-15T11:57:19.674Z,392
2016-12-15T11:58:23.152Z,396
2016-12-15T11:59:26.599Z,416
2016-12-15T12:00:30.070Z,416
2016-12-15T12:01:33.525Z,412
2016-12-15T12:02:36.974Z,416
2016-12-15T12:05:10.418Z,416
2016-12-15T12:06:13.867Z,416
2016-12-15T12:07:17.310Z,412
2016-12-15T12:08:20.769Z,412
2016-12-15T12:09:24.219Z,412
2016-12-15T12:10:27.678Z,380
2016-12-15T12:11:31.140Z,376
2016-12-15T12:12:34.579Z,380
2016-12-15T12:13:38.037Z,380
2016-12-15T12:14:41.491Z,380
2016-12-15T12:15:44.942Z,380
2016-12-15T12:16:48.398Z,380
2016-12-15T12:17:51.834Z,380
2016-12-15T12:18:55.267Z,380
2016-12-15T12:19:58.731Z,384
2016-12-15T12:21:02.194Z,384
2016-12-15T12:22:05.649Z,384
2016-12-15T12:24:36.749Z,380
2016-12-15T12:25:40.210Z,380
2016-12-15T12:26:43.647Z,384
2016-12-15T12:27:47.100Z,384
2016-12-15T12:28:50.555Z,384
2016-12-15T12:29:53.997Z,384
2016-12-15T12:30:57.456Z,384
2016-12-15T12:32:00.903Z,384
2016-12-15T12:33:04.358Z,384
2016-12-15T12:34:07.819Z,380
2016-12-15T12:35:11.259Z,380
2016-12-15T12:36:14.710Z,380
2016-12-15T12:37:18.168Z,380
2016-12-15T12:38:21.616Z,384
2016-12-15T12:39:25.066Z,384
2016-12-15T12:40:28.525Z,384
2016-12-15T12:41:31.962Z,380
2016-12-15T12:42:35.415Z,384
2016-12-15T12:43:38.871Z,380
2016-12-15T12:44:42.323Z,380
2016-12-15T12:45:45.770Z,380
2016-12-15T12:46:49.207Z,376
2016-12-15T12:47:52.659Z,376
2016-12-15T12:48:56.138Z,376
2016-12-15T12:49:59.595Z,372
2016-12-15T12:51:03.058Z,372
2016-12-15T12:52:06.503Z,372
2016-12-15T12:53:09.948Z,372
2016-12-15T12:54:13.410Z,376
2016-12-15T12:55:16.860Z,372
2016-12-15T12:56:20.319Z,372
2016-12-15T12:58:51.400Z,372
2016-12-15T13:01:25.778Z,404
2016-12-15T13:03:59.756Z,408
2016-12-15T13:05:03.212Z,408
2016-12-15T13:06:06.661Z,404
2016-12-15T13:07:10.115Z,404
2016-12-15T13:08:13.572Z,404
2016-12-15T13:09:17.029Z,364
2016-12-15T13:10:20.472Z,404
2016-12-15T13:11:23.940Z,400
2016-12-15T13:12:27.398Z,400
2016-12-15T13:13:30.841Z,404
2016-12-15T13:14:34.299Z,400
2016-12-15T13:15:37.758Z,404
2016-12-15T13:16:41.219Z,400
2016-12-15T13:17:44.685Z,396
2016-12-15T13:18:48.137Z,396
2016-12-15T13:19:51.602Z,396
2016-12-15T13:20:55.059Z,392
2016-12-15T13:23:26.167Z,392
2016-12-15T13:24:29.616Z,388
2016-12-15T13:25:33.073Z,392
2016-12-15T13:26:36.528Z,388
2016-12-15T13:27:39.990Z,388
2016-12-15T13:30:11.670Z,392
2016-12-15T13:31:15.105Z,392
2016-12-15T13:32:18.562Z,388
2016-12-15T13:33:22.031Z,388
2016-12-15T13:34:26.143Z,388
2016-12-15T13:35:56.344Z,388
2016-12-15T13:36:59.795Z,388
2016-12-15T13:38:03.241Z,388
2016-12-15T13:39:06.691Z,388
2016-12-15T13:40:10.134Z,388
2016-12-15T13:41:13.584Z,388
2016-12-15T13:42:17.033Z,392
2016-12-15T13:43:20.484Z,388
2016-12-15T13:44:23.942Z,388
2016-12-15T13:45:27.393Z,388
2016-12-15T13:46:30.844Z,388
2016-12-15T13:47:34.303Z,388
2016-12-15T13:48:37.755Z,388
2016-12-15T13:49:41.210Z,384
2016-12-15T13:50:44.663Z,380
2016-12-15T13:51:48.116Z,388
2016-12-15T13:52:51.569Z,388
2016-12-15T13:53:55.034Z,388
2016-12-15T13:54:58.509Z,388
2016-12-15T13:56:01.957Z,388
2016-12-15T13:57:05.412Z,384
2016-12-15T13:58:08.877Z,388
2016-12-15T13:59:12.327Z,384
2016-12-15T14:00:15.790Z,380
2016-12-15T14:02:48.613Z,380
2016-12-15T14:05:20.287Z,388
2016-12-15T14:06:23.724Z,384
2016-12-15T14:07:27.191Z,384
2016-12-15T14:08:30.650Z,388
2016-12-15T14:09:34.101Z,384
2016-12-15T14:10:37.552Z,384
2016-12-15T14:11:41.018Z,384
2016-12-15T14:12:44.463Z,384
2016-12-15T14:13:47.916Z,384
2016-12-15T14:14:51.374Z,384
2016-12-15T14:15:54.833Z,384
2016-12-15T14:16:58.300Z,380
2016-12-15T14:18:01.765Z,384
2016-12-15T14:19:05.204Z,380
2016-12-15T14:20:08.648Z,380
2016-12-15T14:22:40.040Z,384
2016-12-15T14:23:43.473Z,384
2016-12-15T14:24:46.941Z,380
2016-12-15T14:25:50.393Z,380
2016-12-15T14:26:53.862Z,380
2016-12-15T14:27:57.319Z,376
2016-12-15T14:29:00.778Z,380
2016-12-15T14:30:04.223Z,380
2016-12-15T14:31:07.680Z,380
2016-12-15T14:32:11.146Z,376
2016-12-15T14:33:14.580Z,380
2016-12-15T14:34:18.028Z,380
2016-12-15T14:35:21.489Z,380
2016-12-15T14:36:24.924Z,380
2016-12-15T14:37:28.384Z,380
2016-12-15T14:38:31.823Z,380
2016-12-15T14:39:35.281Z,376
2016-12-15T14:40:38.741Z,376
2016-12-15T14:41:42.180Z,380
2016-12-15T14:42:45.623Z,380
2016-12-15T14:43:49.100Z,376
2016-12-15T14:44:52.546Z,328
2016-12-15T14:45:56.001Z,328
2016-12-15T14:46:59.464Z,372
2016-12-15T14:48:02.917Z,376
2016-12-15T14:49:06.369Z,372
2016-12-15T14:50:09.831Z,376
2016-12-15T14:51:13.280Z,376
2016-12-15T14:52:16.733Z,376
2016-12-15T14:53:20.191Z,372
2016-12-15T14:54:23.653Z,372
2016-12-15T14:55:27.111Z,376
2016-12-15T14:56:30.566Z,372
2016-12-15T14:57:34.021Z,372
2016-12-15T14:58:37.474Z,372
2016-12-15T14:59:40.922Z,372
2016-12-15T15:00:44.383Z,372
2016-12-15T15:01:47.820Z,376
2016-12-15T15:02:51.277Z,376
2016-12-15T15:03:54.726Z,372
2016-12-15T15:04:58.173Z,372
2016-12-15T15:06:01.638Z,372
2016-12-15T15:07:05.088Z,372
2016-12-15T15:08:08.541Z,368
2016-12-15T15:09:11.983Z,368
2016-12-15T15:10:15.440Z,372
2016-12-15T15:11:18.897Z,372
2016-12-15T15:12:22.361Z,372
2016-12-15T15:13:25.812Z,368
2016-12-15T15:14:29.265Z,368
2016-12-15T15:15:32.724Z,368
2016-12-15T15:16:36.175Z,368
2016-12-15T15:17:39.618Z,372
2016-12-15T15:18:43.077Z,372
2016-12-15T15:19:46.524Z,372
2016-12-15T15:20:49.981Z,372
2016-12-15T15:21:53.431Z,372
2016-12-15T15:22:56.870Z,372
2016-12-15T15:24:00.320Z,368
2016-12-15T15:26:33.763Z,368
2016-12-15T15:27:37.212Z,368
2016-12-15T15:28:40.657Z,368
2016-12-15T15:29:44.101Z,368
2016-12-15T15:30:47.559Z,368
2016-12-15T15:31:51.023Z,368
2016-12-15T15:32:54.471Z,368
2016-12-15T15:33:57.927Z,368
2016-12-15T15:35:01.370Z,332
2016-12-15T15:36:04.825Z,372
2016-12-15T15:37:08.297Z,368
2016-12-15T15:38:11.742Z,368
2016-12-15T15:39:15.194Z,368
2016-12-15T15:40:18.650Z,368
2016-12-15T15:41:22.102Z,368
2016-12-15T15:42:25.546Z,368
2016-12-15T15:43:29.011Z,372
2016-12-15T15:44:32.447Z,368
2016-12-15T15:45:35.897Z,372
2016-12-15T15:46:39.352Z,372
2016-12-15T15:47:42.826Z,372
2016-12-15T15:48:46.272Z,368
2016-12-15T15:49:49.727Z,368
2016-12-15T15:50:53.190Z,372
2016-12-15T15:51:56.641Z,368
2016-12-15T15:53:00.111Z,368